createdAt,value
2022-11-27T00:00:20.600Z,59.7
2022-11-27T00:01:21.585Z,59.7
2022-11-27T00:02:22.638Z,59.7
2022-11-27T00:03:23.600Z,59.7
2022-11-27T00:04:24.580Z,59.6
2022-11-27T00:05:25.639Z,59.6
2022-11-27T00:06:26.587Z,59.4
2022-11-27T00:07:27.762Z,59.4
2022-11-27T00:08:29.738Z,59.1
2022-11-27T00:09:31.613Z,59.1
2022-11-27T00:10:33.685Z,58.8
2022-11-27T00:11:35.721Z,58.7
2022-11-27T00:12:37.540Z,58.9
2022-11-27T00:13:38.606Z,59.2
2022-11-27T00:14:39.580Z,59.6
2022-11-27T00:15:40.753Z,59.8
2022-11-27T00:16:41.599Z,59.9
2022-11-27T00:17:42.560Z,59.8
2022-11-27T00:18:43.762Z,59.7
2022-11-27T00:19:45.758Z,59.8
2022-11-27T00:20:47.565Z,59.8
2022-11-27T00:21:48.541Z,59.7
2022-11-27T00:22:49.660Z,59.7
2022-11-27T00:23:51.716Z,59.6
2022-11-27T00:24:53.798Z,59.6
2022-11-27T00:25:55.580Z,59.4
2022-11-27T00:26:56.560Z,59.4
2022-11-27T00:27:57.520Z,59.4
2022-11-27T00:28:58.636Z,59.5
2022-11-27T00:30:00.698Z,59.5
2022-11-27T00:31:02.737Z,59.4
2022-11-27T00:32:05.054Z,58.7
2022-11-27T00:33:06.802Z,58.6
2022-11-27T00:34:08.757Z,59
2022-11-27T00:35:10.799Z,58.9
2022-11-27T00:36:12.587Z,59
2022-11-27T00:37:13.780Z,59.1
2022-11-27T00:38:15.562Z,59.5
2022-11-27T00:39:16.581Z,59.6
2022-11-27T00:40:17.620Z,59.6
2022-11-27T00:41:18.699Z,59.6
2022-11-27T00:42:20.560Z,59.5
2022-11-27T00:43:21.635Z,59.5
2022-11-27T00:44:22.639Z,59.5
2022-11-27T00:45:24.622Z,59.4
2022-11-27T00:46:28.611Z,59.3
2022-11-27T00:47:27.079Z,59.3
2022-11-27T00:48:28.679Z,59.2
2022-11-27T00:49:30.716Z,58.9
2022-11-27T00:50:32.798Z,58.9
2022-11-27T00:51:34.740Z,59
2022-11-27T00:52:36.772Z,59.2
2022-11-27T00:53:38.550Z,59.3
2022-11-27T00:54:39.863Z,59.5
2022-11-27T00:55:40.562Z,59.6
2022-11-27T00:56:41.588Z,59.5
2022-11-27T00:57:42.699Z,59.3
2022-11-27T00:58:44.800Z,58.9
2022-11-27T00:59:46.683Z,58.7
2022-11-27T01:00:48.702Z,57.6
2022-11-27T01:01:50.787Z,57.1
2022-11-27T01:02:52.764Z,56.8
2022-11-27T01:03:54.635Z,56.8
2022-11-27T01:04:56.599Z,56.8
2022-11-27T01:05:57.587Z,57.2
2022-11-27T01:06:58.745Z,57.7
2022-11-27T01:08:00.712Z,58
2022-11-27T01:09:02.519Z,58.2
2022-11-27T01:10:03.578Z,58.3
2022-11-27T01:11:04.541Z,58.4
2022-11-27T01:12:05.607Z,58.4
2022-11-27T01:13:06.560Z,58.4
2022-11-27T01:14:07.599Z,58.4
2022-11-27T01:15:08.578Z,58.5
2022-11-27T01:16:09.609Z,58.5
2022-11-27T01:17:10.579Z,58.6
2022-11-27T01:18:11.539Z,58.5
2022-11-27T01:19:12.530Z,57.5
2022-11-27T01:20:13.646Z,57
2022-11-27T01:21:14.538Z,56.7
2022-11-27T01:22:15.547Z,56.6
2022-11-27T01:23:16.498Z,56.6
2022-11-27T01:24:17.567Z,57
2022-11-27T01:25:20.086Z,57.8
2022-11-27T01:26:19.539Z,58.4
2022-11-27T01:27:20.598Z,58.7
2022-11-27T01:28:21.600Z,59.1
2022-11-27T01:29:22.559Z,59.1
2022-11-27T01:30:23.579Z,59.1
2022-11-27T01:31:24.752Z,59
2022-11-27T01:32:25.539Z,59
2022-11-27T01:33:26.639Z,59.1
2022-11-27T01:34:27.822Z,59.5
2022-11-27T01:35:29.678Z,60.2
2022-11-27T01:36:31.760Z,60.8
2022-11-27T01:37:33.703Z,61.2
2022-11-27T01:38:35.798Z,61.5
2022-11-27T01:39:37.528Z,61.5
2022-11-27T01:40:38.747Z,61.5
2022-11-27T01:41:40.599Z,61.3
2022-11-27T01:42:41.575Z,61.1
2022-11-27T01:43:42.568Z,60.9
2022-11-27T01:44:43.719Z,60.6
2022-11-27T01:45:45.780Z,60.4
2022-11-27T01:46:47.769Z,60.3
2022-11-27T01:47:49.746Z,60.1
2022-11-27T01:48:51.699Z,60
2022-11-27T01:49:53.539Z,60.1
2022-11-27T01:50:54.520Z,60.2
2022-11-27T01:51:55.581Z,60.2
2022-11-27T01:52:56.633Z,60.3
2022-11-27T01:53:57.659Z,60.3
2022-11-27T01:54:59.980Z,60.1
2022-11-27T01:56:01.780Z,59.7
2022-11-27T01:57:03.739Z,59.4
2022-11-27T01:58:05.739Z,59
2022-11-27T01:59:07.600Z,58.9
2022-11-27T02:00:08.721Z,59
2022-11-27T02:01:10.506Z,59
2022-11-27T02:02:11.621Z,59
2022-11-27T02:03:12.625Z,59
2022-11-27T02:07:13.802Z,58.9
2022-11-27T02:08:15.664Z,59.1
2022-11-27T02:09:16.638Z,59
2022-11-27T02:10:17.580Z,59.1
2022-11-27T02:11:18.678Z,59.2
2022-11-27T02:12:20.559Z,59.2
2022-11-27T02:13:21.651Z,59.3
2022-11-27T02:14:23.766Z,59.4
2022-11-27T02:15:25.899Z,59.4
2022-11-27T02:16:28.140Z,59.3
2022-11-27T02:17:29.739Z,59.4
2022-11-27T02:18:31.765Z,59.4
2022-11-27T02:19:33.697Z,59.3
2022-11-27T02:20:35.797Z,59.2
2022-11-27T02:21:37.998Z,59.1
2022-11-27T02:22:39.999Z,59.1
2022-11-27T02:23:41.577Z,58.9
2022-11-27T02:24:42.842Z,58.7
2022-11-27T02:25:43.660Z,58.4
2022-11-27T02:26:44.799Z,58.3
2022-11-27T02:27:46.777Z,57.7
2022-11-27T02:28:48.761Z,57.1
2022-11-27T02:29:50.739Z,56.9
2022-11-27T02:30:52.872Z,56.8
2022-11-27T02:31:54.539Z,56.8
2022-11-27T02:32:55.617Z,56.7
2022-11-27T02:33:56.721Z,56.4
2022-11-27T02:34:58.729Z,56.4
2022-11-27T02:36:00.799Z,56.5
2022-11-27T02:37:02.719Z,57.4
2022-11-27T02:38:04.778Z,57.9
2022-11-27T02:39:06.607Z,58
2022-11-27T02:40:07.757Z,58.2
2022-11-27T02:41:09.723Z,58.1
2022-11-27T02:42:11.739Z,58.1
2022-11-27T02:43:12.617Z,58.2
2022-11-27T02:44:13.622Z,58.5
2022-11-27T02:45:14.621Z,58.8
2022-11-27T02:46:15.774Z,58.8
2022-11-27T02:47:17.738Z,58.9
2022-11-27T02:48:19.758Z,59.1
2022-11-27T02:49:21.764Z,59.1
2022-11-27T02:50:23.681Z,58.8
2022-11-27T02:51:24.678Z,58.6
2022-11-27T02:52:25.679Z,58.4
2022-11-27T02:53:26.678Z,58.3
2022-11-27T02:54:27.899Z,58.3
2022-11-27T02:55:29.693Z,58.6
2022-11-27T02:56:31.818Z,58.7
2022-11-27T02:57:33.799Z,58.8
2022-11-27T02:58:34.768Z,58.8
2022-11-27T02:59:36.568Z,58.7
2022-11-27T03:00:37.606Z,58.8
2022-11-27T03:01:38.768Z,58.8
2022-11-27T03:02:39.697Z,58.8
2022-11-27T03:03:40.662Z,58.8
2022-11-27T03:04:41.996Z,58.8
2022-11-27T03:05:42.660Z,58.9
2022-11-27T03:06:43.541Z,58.9
2022-11-27T03:07:44.728Z,59
2022-11-27T03:08:45.618Z,58.8
2022-11-27T03:09:46.597Z,59
2022-11-27T03:10:47.600Z,59.1
2022-11-27T03:11:48.760Z,59
2022-11-27T03:12:50.841Z,59
2022-11-27T03:13:52.639Z,58.8
2022-11-27T03:14:53.679Z,58.7
2022-11-27T03:15:54.778Z,58.6
2022-11-27T03:16:56.601Z,58.7
2022-11-27T03:17:57.622Z,58.9
2022-11-27T03:18:58.643Z,58.8
2022-11-27T03:19:59.858Z,58.6
2022-11-27T03:21:01.798Z,58.7
2022-11-27T03:22:04.099Z,58.8
2022-11-27T03:23:06.238Z,58.5
2022-11-27T03:24:07.818Z,58.4
2022-11-27T03:25:09.690Z,58.3
2022-11-27T03:26:10.819Z,58.4
2022-11-27T03:27:12.919Z,58.4
2022-11-27T03:28:14.922Z,58.3
2022-11-27T03:29:16.778Z,58.6
2022-11-27T03:30:18.638Z,58.6
2022-11-27T03:31:19.722Z,58.8
2022-11-27T03:32:20.615Z,58.8
2022-11-27T03:33:21.840Z,58.8
2022-11-27T03:34:23.797Z,58.8
2022-11-27T03:35:25.907Z,58.8
2022-11-27T03:36:28.418Z,58.6
2022-11-27T03:37:29.838Z,58.8
2022-11-27T03:38:31.919Z,58.9
2022-11-27T03:39:33.778Z,58.8
2022-11-27T03:40:35.853Z,58.8
2022-11-27T03:41:37.966Z,58.7
2022-11-27T03:42:39.639Z,58.7
2022-11-27T03:43:40.878Z,58.7
2022-11-27T03:44:42.619Z,58.7
2022-11-27T03:45:44.358Z,58.7
2022-11-27T03:46:45.716Z,58.6
2022-11-27T03:47:46.708Z,58.4
2022-11-27T03:48:47.780Z,58.7
2022-11-27T03:49:49.725Z,58.8
2022-11-27T03:50:50.679Z,58.9
2022-11-27T03:51:51.780Z,59
2022-11-27T03:52:53.839Z,59.1
2022-11-27T03:53:55.619Z,59.2
2022-11-27T03:54:56.662Z,59.2
2022-11-27T03:55:57.660Z,59.3
2022-11-27T03:56:58.699Z,59.4
2022-11-27T03:57:59.620Z,59.5
2022-11-27T03:59:00.881Z,59.6
2022-11-27T04:00:02.900Z,59.6
2022-11-27T04:01:04.742Z,59.6
2022-11-27T04:02:06.866Z,59.7
2022-11-27T04:03:08.838Z,59.6
2022-11-27T04:04:10.810Z,59.6
2022-11-27T04:05:12.672Z,59.7
2022-11-27T04:06:13.739Z,59.3
2022-11-27T04:07:15.739Z,59.3
2022-11-27T04:08:17.799Z,59.6
2022-11-27T04:09:19.820Z,59.7
2022-11-27T04:10:21.879Z,59.9
2022-11-27T04:11:23.799Z,59.8
2022-11-27T04:12:25.739Z,59.5
2022-11-27T04:13:26.680Z,59.4
2022-11-27T04:14:28.138Z,59.6
2022-11-27T04:15:29.738Z,59.6
2022-11-27T04:16:31.012Z,59.6
2022-11-27T04:17:32.898Z,59.6
2022-11-27T04:18:34.819Z,59.4
2022-11-27T04:19:36.622Z,59.2
2022-11-27T04:20:37.731Z,59.4
2022-11-27T04:21:38.651Z,59.4
2022-11-27T04:22:39.678Z,59.3
2022-11-27T04:23:40.639Z,59.3
2022-11-27T04:24:41.875Z,59.4
2022-11-27T04:25:42.840Z,59.5
2022-11-27T04:26:44.798Z,59.6
2022-11-27T04:27:46.799Z,59.6
2022-11-27T04:28:48.979Z,59.7
2022-11-27T04:29:51.019Z,59.8
2022-11-27T04:30:53.044Z,59.4
2022-11-27T04:31:54.800Z,59.8
2022-11-27T04:32:56.698Z,60
2022-11-27T04:33:57.698Z,60.1
2022-11-27T04:34:58.704Z,60.1
2022-11-27T04:35:59.739Z,60.1
2022-11-27T04:37:00.699Z,60.2
2022-11-27T04:38:01.738Z,60.4
2022-11-27T04:39:02.662Z,60.4
2022-11-27T04:40:03.745Z,60.4
2022-11-27T04:41:04.840Z,60.3
2022-11-27T04:42:06.784Z,60.4
2022-11-27T04:43:08.913Z,60.3
2022-11-27T04:44:10.738Z,60.3
2022-11-27T04:45:11.794Z,60.3
2022-11-27T04:46:12.821Z,59.8
2022-11-27T04:47:14.938Z,60
2022-11-27T04:48:16.879Z,60.1
2022-11-27T04:49:18.818Z,60
2022-11-27T04:50:20.701Z,60.2
2022-11-27T04:51:21.739Z,60.2
2022-11-27T04:52:22.768Z,60.5
2022-11-27T04:53:25.107Z,60.6
2022-11-27T04:54:26.898Z,60.8
2022-11-27T04:55:28.858Z,60.1
2022-11-27T04:56:30.818Z,61.1
2022-11-27T04:57:32.839Z,61.3
2022-11-27T04:58:34.879Z,61.2
2022-11-27T04:59:36.719Z,61
2022-11-27T05:00:37.863Z,60.9
2022-11-27T05:01:38.678Z,60.9
2022-11-27T05:02:39.820Z,60.8
2022-11-27T05:03:40.687Z,60.8
2022-11-27T05:04:41.844Z,60.7
2022-11-27T05:05:42.716Z,60.6
2022-11-27T05:06:43.618Z,60.6
2022-11-27T05:07:44.786Z,60.5
2022-11-27T05:08:46.938Z,60.5
2022-11-27T05:09:48.698Z,60.4
2022-11-27T05:10:49.718Z,60.4
2022-11-27T05:11:50.688Z,60.4
2022-11-27T05:12:51.699Z,59.9
2022-11-27T05:13:52.701Z,60.1
2022-11-27T05:14:53.728Z,60.1
2022-11-27T05:15:54.919Z,60.1
2022-11-27T05:16:55.767Z,59.9
2022-11-27T05:17:56.703Z,59.1
2022-11-27T05:18:57.798Z,58.9
2022-11-27T05:19:59.719Z,58.8
2022-11-27T05:21:00.841Z,58.8
2022-11-27T05:22:02.919Z,58.9
2022-11-27T05:23:04.938Z,58.8
2022-11-27T05:24:06.738Z,58.6
2022-11-27T05:25:07.619Z,58.5
2022-11-27T05:26:08.741Z,58.7
2022-11-27T05:27:09.719Z,58.7
2022-11-27T05:28:10.665Z,58.4
2022-11-27T05:29:11.727Z,58.3
2022-11-27T05:30:13.478Z,59
2022-11-27T05:31:14.900Z,59.2
2022-11-27T05:32:15.780Z,59.4
2022-11-27T05:33:17.878Z,59.7
2022-11-27T05:34:19.699Z,59.7
2022-11-27T05:35:20.660Z,59.8
2022-11-27T05:36:21.658Z,60
2022-11-27T05:37:22.640Z,60
2022-11-27T05:38:23.665Z,59.8
2022-11-27T05:39:24.802Z,59.9
2022-11-27T05:40:26.766Z,59.5
2022-11-27T05:41:28.086Z,60
2022-11-27T05:42:29.818Z,60.3
2022-11-27T05:43:31.878Z,60.5
2022-11-27T05:44:33.938Z,60.5
2022-11-27T05:45:35.838Z,60.5
2022-11-27T05:46:37.952Z,60.5
2022-11-27T05:47:39.958Z,60.5
2022-11-27T05:48:41.957Z,60.5
2022-11-27T05:49:44.057Z,60.3
2022-11-27T05:50:45.758Z,60.2
2022-11-27T05:51:51.161Z,60.2
2022-11-27T05:52:47.678Z,60.2
2022-11-27T05:53:48.819Z,60.1
2022-11-27T05:54:50.758Z,60.1
2022-11-27T05:55:51.839Z,59.9
2022-11-27T05:56:54.384Z,60
2022-11-27T05:57:55.898Z,59.8
2022-11-27T05:58:57.698Z,59.9
2022-11-27T05:59:58.678Z,60
2022-11-27T06:00:59.899Z,59.4
2022-11-27T06:02:02.125Z,58.8
2022-11-27T06:03:04.052Z,58.4
2022-11-27T06:04:05.961Z,58.3
2022-11-27T06:05:07.889Z,58.4
2022-11-27T06:06:09.918Z,58.9
2022-11-27T06:07:11.787Z,59.3
2022-11-27T06:08:12.658Z,59.6
2022-11-27T06:09:13.855Z,59.8
2022-11-27T06:10:14.719Z,60.1
2022-11-27T06:11:15.758Z,60.3
2022-11-27T06:12:18.424Z,60.4
2022-11-27T06:13:19.661Z,60.4
2022-11-27T06:14:20.678Z,60.3
2022-11-27T06:15:21.759Z,60.3
2022-11-27T06:16:23.840Z,60.2
2022-11-27T06:17:25.000Z,60.2
2022-11-27T06:18:26.738Z,59.6
2022-11-27T06:19:28.117Z,59
2022-11-27T06:20:29.696Z,59
2022-11-27T06:21:30.878Z,58.9
2022-11-27T06:22:32.698Z,58.9
2022-11-27T06:23:33.743Z,58.3
2022-11-27T06:24:34.703Z,58.8
2022-11-27T06:25:35.707Z,58.8
2022-11-27T06:26:36.710Z,58.9
2022-11-27T06:27:37.979Z,58.9
2022-11-27T06:28:40.046Z,58.8
2022-11-27T06:29:42.118Z,58.8
2022-11-27T06:30:43.700Z,58.8
2022-11-27T06:31:44.795Z,58.7
2022-11-27T06:32:46.143Z,58.6
2022-11-27T06:33:47.858Z,58.6
2022-11-27T06:34:49.918Z,59.2
2022-11-27T06:35:51.798Z,59.7
2022-11-27T06:36:53.768Z,60
2022-11-27T06:37:54.720Z,59.6
2022-11-27T06:38:55.811Z,59.1
2022-11-27T06:39:57.798Z,59
2022-11-27T06:40:58.698Z,58.8
2022-11-27T06:41:59.693Z,58.8
2022-11-27T06:43:00.884Z,58.5
2022-11-27T06:44:02.778Z,58.4
2022-11-27T06:45:03.957Z,58.3
2022-11-27T06:46:05.989Z,58.2
2022-11-27T06:47:07.819Z,58.2
2022-11-27T06:48:10.003Z,58.1
2022-11-27T06:49:11.818Z,58.1
2022-11-27T06:50:13.822Z,58.6
2022-11-27T06:51:15.958Z,59.3
2022-11-27T06:52:17.757Z,59.4
2022-11-27T06:53:18.669Z,59.5
2022-11-27T06:54:19.818Z,59.4
2022-11-27T06:55:20.861Z,59.6
2022-11-27T06:56:22.741Z,59.6
2022-11-27T06:57:24.205Z,59.7
2022-11-27T06:58:30.783Z,59.7
2022-11-27T06:59:28.317Z,59.9
2022-11-27T07:00:30.178Z,60
2022-11-27T07:01:32.024Z,60
2022-11-27T07:02:33.803Z,60.2
2022-11-27T07:03:34.881Z,60.1
2022-11-27T07:04:35.738Z,60.2
2022-11-27T07:05:36.838Z,60.2
2022-11-27T07:06:38.827Z,60.3
2022-11-27T07:07:43.726Z,60.5
2022-11-27T07:08:42.919Z,60.8
2022-11-27T07:09:45.020Z,61
2022-11-27T07:10:46.961Z,61.1
2022-11-27T07:11:48.885Z,61.1
2022-11-27T07:12:50.757Z,61.2
2022-11-27T07:13:51.759Z,61
2022-11-27T07:14:52.846Z,61
2022-11-27T07:15:55.102Z,61.1
2022-11-27T07:16:56.897Z,61.3
2022-11-27T07:17:58.794Z,61.3
2022-11-27T07:18:59.978Z,61.3
2022-11-27T07:20:02.207Z,61.5
2022-11-27T07:21:03.775Z,61.5
2022-11-27T07:22:04.826Z,61.8
2022-11-27T07:23:06.857Z,62.1
2022-11-27T07:24:08.878Z,62.2
2022-11-27T07:25:11.138Z,62.3
2022-11-27T07:26:12.958Z,62.1
2022-11-27T07:27:14.878Z,62.2
2022-11-27T07:28:18.976Z,62.2
2022-11-27T07:29:18.749Z,61.9
2022-11-27T07:30:19.881Z,62.1
2022-11-27T07:31:22.076Z,62.2
2022-11-27T07:32:23.823Z,62.2
2022-11-27T07:33:26.619Z,62.4
2022-11-27T07:34:28.598Z,62.3
2022-11-27T07:35:29.810Z,62.5
2022-11-27T07:36:31.939Z,62.8
2022-11-27T07:37:33.926Z,62.8
2022-11-27T07:38:36.059Z,62.6
2022-11-27T07:40:00.607Z,62.7
2022-11-27T07:40:39.886Z,62.6
2022-11-27T07:41:42.091Z,62.5
2022-11-27T07:42:43.698Z,62.4
2022-11-27T07:43:44.778Z,62.3
2022-11-27T07:44:47.123Z,62.3
2022-11-27T07:45:48.910Z,61.8
2022-11-27T07:46:49.862Z,62.2
2022-11-27T07:47:51.922Z,62.1
2022-11-27T07:48:54.369Z,61.7
2022-11-27T07:49:56.199Z,61.5
2022-11-27T07:50:57.949Z,61.3
2022-11-27T07:51:59.917Z,61.3
2022-11-27T07:53:01.954Z,60.9
2022-11-27T07:54:04.061Z,61
2022-11-27T07:55:06.258Z,60.9
2022-11-27T07:56:07.838Z,61
2022-11-27T07:57:09.097Z,61.1
2022-11-27T07:58:11.371Z,61.3
2022-11-27T07:59:13.356Z,61.4
2022-11-27T08:00:14.767Z,61.3
2022-11-27T08:01:15.972Z,61.3
2022-11-27T08:02:17.713Z,61.3
2022-11-27T08:03:19.539Z,61.4
2022-11-27T08:04:20.763Z,61.5
2022-11-27T08:05:22.165Z,61.5
2022-11-27T08:06:24.275Z,61.5
2022-11-27T08:07:25.908Z,62.1
2022-11-27T08:08:28.458Z,62.1
2022-11-27T08:09:29.978Z,62
2022-11-27T08:10:32.187Z,61.9
2022-11-27T08:11:33.985Z,61.5
2022-11-27T08:12:35.813Z,61.6
2022-11-27T08:13:37.798Z,61.6
2022-11-27T08:14:39.171Z,61.4
2022-11-27T08:15:40.900Z,61.3
2022-11-27T08:16:42.884Z,61.2
2022-11-27T08:17:44.906Z,61.1
2022-11-27T08:18:47.367Z,60.2
2022-11-27T08:19:48.926Z,60.5
2022-11-27T08:20:51.039Z,60.4
2022-11-27T08:21:52.799Z,60.4
2022-11-27T08:22:56.991Z,60.3
2022-11-27T08:23:55.765Z,60.7
2022-11-27T08:24:56.709Z,60.7
2022-11-27T08:25:57.718Z,60.8
2022-11-27T08:26:58.767Z,60.1
2022-11-27T08:27:59.780Z,59.7
2022-11-27T08:29:00.818Z,59.3
2022-11-27T08:30:01.937Z,59.1
2022-11-27T08:31:03.760Z,58.8
2022-11-27T08:32:04.805Z,58.7
2022-11-27T08:33:05.867Z,58.8
2022-11-27T08:34:07.978Z,58.8
2022-11-27T08:35:09.799Z,58.8
2022-11-27T08:36:15.089Z,58.7
2022-11-27T08:37:12.905Z,58.6
2022-11-27T08:38:14.978Z,58.3
2022-11-27T08:39:16.952Z,57.7
2022-11-27T08:40:18.859Z,57.5
2022-11-27T08:41:20.311Z,57.4
2022-11-27T08:42:22.338Z,57.5
2022-11-27T08:43:23.898Z,58.1
2022-11-27T08:44:25.800Z,58.5
2022-11-27T08:45:27.174Z,59.4
2022-11-27T08:46:29.539Z,60
2022-11-27T08:47:31.002Z,59.2
2022-11-27T08:48:33.060Z,59
2022-11-27T08:49:35.641Z,58.8
2022-11-27T08:50:36.961Z,58.5
2022-11-27T08:51:38.898Z,58
2022-11-27T08:52:39.778Z,57.8
2022-11-27T08:53:40.758Z,57.8
2022-11-27T08:54:42.122Z,57.8
2022-11-27T08:55:42.884Z,57.5
2022-11-27T08:56:45.019Z,57.4
2022-11-27T08:57:46.939Z,57.5
2022-11-27T08:58:49.020Z,57.8
2022-11-27T08:59:50.998Z,57.8
2022-11-27T09:00:53.001Z,57.9
2022-11-27T09:01:54.996Z,57.9
2022-11-27T09:02:56.919Z,58
2022-11-27T09:03:58.856Z,58.1
2022-11-27T09:04:59.818Z,57.7
2022-11-27T09:06:00.957Z,57.3
2022-11-27T09:07:04.120Z,57.4
2022-11-27T09:08:05.999Z,57.2
2022-11-27T09:09:08.000Z,57
2022-11-27T09:10:09.838Z,57.1
2022-11-27T09:11:11.362Z,57.2
2022-11-27T09:12:13.027Z,57.4
2022-11-27T09:13:14.819Z,57.4
2022-11-27T09:14:15.773Z,57.4
2022-11-27T09:15:16.889Z,57.3
2022-11-27T09:16:19.111Z,57.7
2022-11-27T09:17:21.219Z,58.2
2022-11-27T09:18:22.987Z,58.5
2022-11-27T09:19:25.019Z,58.8
2022-11-27T09:20:27.063Z,59.9
2022-11-27T09:21:29.320Z,60.4
2022-11-27T09:22:31.094Z,60.1
2022-11-27T09:23:33.239Z,59.6
2022-11-27T09:24:35.077Z,59.2
2022-11-27T09:25:37.099Z,58.9
2022-11-27T09:26:38.948Z,58.9
2022-11-27T09:27:40.979Z,58.9
2022-11-27T09:28:42.841Z,58.7
2022-11-27T09:29:44.483Z,58.3
2022-11-27T09:30:46.078Z,57.9
2022-11-27T09:31:48.376Z,57.9
2022-11-27T09:32:52.039Z,58.1
2022-11-27T09:33:54.138Z,58.6
2022-11-27T09:34:56.569Z,58.9
2022-11-27T09:35:57.894Z,59.1
2022-11-27T09:36:59.948Z,59.9
2022-11-27T09:38:02.055Z,59.6
2022-11-27T09:39:04.357Z,59.4
2022-11-27T09:40:06.539Z,59.5
2022-11-27T09:41:09.419Z,59.7
2022-11-27T09:42:11.020Z,59.6
2022-11-27T09:43:12.860Z,59.5
2022-11-27T09:44:13.882Z,59.7
2022-11-27T09:45:15.337Z,59
2022-11-27T09:46:17.561Z,58.7
2022-11-27T09:47:19.078Z,58.1
2022-11-27T09:48:20.960Z,58
2022-11-27T09:49:23.592Z,57.9
2022-11-27T09:50:24.958Z,57.9
2022-11-27T09:51:27.078Z,58
2022-11-27T09:52:29.679Z,57.7
2022-11-27T09:53:31.490Z,57.3
2022-11-27T09:54:32.958Z,56.6
2022-11-27T09:55:35.438Z,56.4
2022-11-27T09:56:37.108Z,56.1
2022-11-27T09:57:38.979Z,56.3
2022-11-27T09:58:40.819Z,56.4
2022-11-27T09:59:42.099Z,56.3
2022-11-27T10:00:44.098Z,56.1
2022-11-27T10:01:50.503Z,56.3
2022-11-27T10:02:48.164Z,56.2
2022-11-27T10:03:50.039Z,56.5
2022-11-27T10:05:12.684Z,56.5
2022-11-27T10:05:53.965Z,56.4
2022-11-27T10:06:56.043Z,56.4
2022-11-27T10:08:01.935Z,56.3
2022-11-27T10:08:59.987Z,56.5
2022-11-27T10:10:00.839Z,56.3
2022-11-27T10:11:01.998Z,55.5
2022-11-27T10:12:04.178Z,55.7
2022-11-27T10:13:06.038Z,56
2022-11-27T10:14:08.019Z,56.3
2022-11-27T10:15:11.579Z,56.8
2022-11-27T10:16:13.001Z,57.3
2022-11-27T10:17:14.926Z,57.4
2022-11-27T10:18:17.298Z,57.4
2022-11-27T10:19:19.843Z,57.8
2022-11-27T10:20:20.976Z,58
2022-11-27T10:21:22.937Z,58.6
2022-11-27T10:22:25.394Z,58.8
2022-11-27T10:23:27.017Z,58.1
2022-11-27T10:24:29.453Z,57.9
2022-11-27T10:25:31.000Z,58.1
2022-11-27T10:26:33.038Z,57.9
2022-11-27T10:27:35.383Z,57.6
2022-11-27T10:28:37.038Z,57.2
2022-11-27T10:29:42.349Z,57.6
2022-11-27T10:30:42.199Z,57.8
2022-11-27T10:31:43.999Z,57.5
2022-11-27T10:33:01.492Z,57.5
2022-11-27T10:33:48.053Z,57.5
2022-11-27T10:34:50.807Z,57.6
2022-11-27T10:35:52.077Z,57.5
2022-11-27T10:36:55.809Z,57
2022-11-27T10:37:59.841Z,56.3
2022-11-27T10:38:59.312Z,55.8
2022-11-27T10:40:01.036Z,56.2
2022-11-27T10:41:02.019Z,55.9
2022-11-27T10:42:04.838Z,55.4
2022-11-27T10:43:06.509Z,55.3
2022-11-27T10:44:08.322Z,55.2
2022-11-27T10:45:10.200Z,55
2022-11-27T10:46:12.331Z,55.2
2022-11-27T10:47:14.058Z,55.5
2022-11-27T10:48:15.837Z,55.5
2022-11-27T10:49:16.798Z,55.2
2022-11-27T10:50:18.121Z,54.9
2022-11-27T10:51:20.019Z,55
2022-11-27T10:52:22.139Z,55.3
2022-11-27T10:53:24.073Z,55.4
2022-11-27T10:54:26.135Z,55.1
2022-11-27T10:55:28.622Z,55.2
2022-11-27T10:56:30.479Z,54.7
2022-11-27T10:57:31.978Z,54.7
2022-11-27T10:58:34.042Z,54.9
2022-11-27T10:59:36.019Z,55.4
2022-11-27T11:00:38.079Z,55.9
2022-11-27T11:01:40.142Z,56
2022-11-27T11:02:41.914Z,56
2022-11-27T11:03:42.931Z,56.3
2022-11-27T11:04:43.920Z,56.2
2022-11-27T11:06:11.952Z,55.9
2022-11-27T11:06:46.959Z,56.1
2022-11-27T11:07:49.259Z,56
2022-11-27T11:08:52.038Z,57.2
2022-11-27T11:09:53.978Z,57.6
2022-11-27T11:10:56.219Z,57.3
2022-11-27T11:11:58.099Z,57.1
2022-11-27T11:13:00.778Z,56.7
2022-11-27T11:14:02.732Z,56.8
2022-11-27T11:15:04.101Z,56.8
2022-11-27T11:16:06.153Z,56.6
2022-11-27T11:17:08.129Z,56.7
2022-11-27T11:18:10.041Z,56.7
2022-11-27T11:19:11.898Z,56.5
2022-11-27T11:20:12.877Z,56.3
2022-11-27T11:21:14.182Z,56.2
2022-11-27T11:22:16.398Z,56.1
2022-11-27T11:23:18.107Z,55.7
2022-11-27T11:24:20.049Z,55.5
2022-11-27T11:25:22.099Z,56
2022-11-27T11:26:24.266Z,56.4
2022-11-27T11:27:26.644Z,56.6
2022-11-27T11:28:28.000Z,56.6
2022-11-27T11:29:30.037Z,56.4
2022-11-27T11:30:32.112Z,56.1
2022-11-27T11:31:34.167Z,55.8
2022-11-27T11:32:37.079Z,55.9
2022-11-27T11:33:39.108Z,56
2022-11-27T11:34:41.278Z,56.4
2022-11-27T11:35:43.318Z,57.6
2022-11-27T11:36:44.998Z,58.4
2022-11-27T11:37:46.914Z,58.2
2022-11-27T11:38:48.093Z,57.5
2022-11-27T11:39:50.206Z,57.1
2022-11-27T11:40:52.108Z,56.6
2022-11-27T11:41:54.149Z,56.4
2022-11-27T11:42:57.084Z,56.1
2022-11-27T11:43:59.099Z,56.2
2022-11-27T11:45:00.878Z,56.1
2022-11-27T11:46:02.023Z,56.2
2022-11-27T11:47:04.245Z,56.3
2022-11-27T11:48:06.218Z,56.3
2022-11-27T11:49:08.135Z,56.4
2022-11-27T11:50:10.067Z,56.3
2022-11-27T11:51:12.079Z,56.4
2022-11-27T11:52:13.999Z,56.2
2022-11-27T11:53:16.079Z,56.1
2022-11-27T11:54:18.018Z,56.1
2022-11-27T11:55:20.052Z,56.2
2022-11-27T11:56:21.912Z,56.4
2022-11-27T11:57:23.098Z,55.9
2022-11-27T11:58:24.992Z,55.6
2022-11-27T11:59:27.077Z,55.6
2022-11-27T12:00:31.554Z,54.7
2022-11-27T12:01:31.276Z,55.1
2022-11-27T12:02:33.480Z,55.3
2022-11-27T12:03:35.115Z,55.8
2022-11-27T12:04:37.164Z,55.8
2022-11-27T12:05:39.080Z,55.6
2022-11-27T12:06:40.926Z,55.1
2022-11-27T12:07:42.016Z,54.5
2022-11-27T12:08:43.987Z,54.4
2022-11-27T12:09:46.518Z,54.3
2022-11-27T12:10:48.190Z,54.3
2022-11-27T12:11:49.840Z,54
2022-11-27T12:12:51.038Z,53.8
2022-11-27T12:13:52.000Z,53.2
2022-11-27T12:14:53.930Z,53.1
2022-11-27T12:15:55.974Z,53.4
2022-11-27T12:16:58.144Z,53.7
2022-11-27T12:18:00.011Z,54
2022-11-27T12:19:02.072Z,54.6
2022-11-27T12:20:04.164Z,55
2022-11-27T12:21:06.033Z,55.5
2022-11-27T12:22:08.165Z,55.7
2022-11-27T12:23:10.003Z,55.8
2022-11-27T12:24:40.368Z,55.5
2022-11-27T12:25:52.181Z,55.6
2022-11-27T12:26:54.159Z,55.6
2022-11-27T12:28:00.972Z,55.4
2022-11-27T12:29:03.963Z,55.5
2022-11-27T12:30:06.800Z,55.5
2022-11-27T12:31:08.093Z,55
2022-11-27T12:32:10.183Z,54.8
2022-11-27T12:33:12.579Z,54.8
2022-11-27T12:34:14.158Z,54.4
2022-11-27T12:35:17.276Z,54.1
2022-11-27T12:36:19.838Z,53.6
2022-11-27T12:37:21.316Z,53.7
2022-11-27T12:38:23.878Z,53.8
2022-11-27T12:39:25.098Z,54.1
2022-11-27T12:40:27.567Z,54.8
2022-11-27T12:41:29.164Z,55.4
2022-11-27T12:42:31.432Z,55.7
2022-11-27T12:43:33.202Z,55.7
2022-11-27T12:44:35.061Z,55.3
2022-11-27T12:45:37.712Z,54.9
2022-11-27T12:46:39.140Z,54.6
2022-11-27T12:47:41.198Z,54.4
2022-11-27T12:48:43.079Z,54.1
2022-11-27T12:49:45.045Z,54.1
2022-11-27T12:50:47.065Z,54.1
2022-11-27T12:51:49.056Z,53.8
2022-11-27T12:52:51.027Z,54.3
2022-11-27T12:53:54.411Z,54.6
2022-11-27T12:54:56.327Z,54.9
2022-11-27T12:55:58.563Z,55.4
2022-11-27T12:56:59.945Z,55.9
2022-11-27T12:58:00.875Z,56.3
2022-11-27T12:59:02.026Z,56.6
2022-11-27T13:00:03.012Z,56.6
2022-11-27T13:01:05.218Z,56.7
2022-11-27T13:02:07.381Z,56.7
2022-11-27T13:03:09.035Z,56.9
2022-11-27T13:04:11.403Z,57
2022-11-27T13:05:13.202Z,57.1
2022-11-27T13:06:15.083Z,57.4
2022-11-27T13:07:17.697Z,57.6
2022-11-27T13:08:18.968Z,57.6
2022-11-27T13:09:19.883Z,57.2
2022-11-27T13:10:20.883Z,56.7
2022-11-27T13:11:22.244Z,56.7
2022-11-27T13:12:24.152Z,56.8
2022-11-27T13:13:25.995Z,57
2022-11-27T13:14:28.239Z,56.7
2022-11-27T13:15:30.072Z,56.5
2022-11-27T13:16:32.287Z,56.4
2022-11-27T13:17:34.252Z,55.9
2022-11-27T13:18:35.924Z,55.5
2022-11-27T13:19:36.973Z,55.3
2022-11-27T13:20:37.964Z,55.1
2022-11-27T13:21:39.076Z,54.9
2022-11-27T13:22:40.964Z,54.7
2022-11-27T13:23:41.915Z,54.6
2022-11-27T13:24:43.418Z,54.5
2022-11-27T13:25:45.075Z,54.6
2022-11-27T13:26:46.948Z,54.5
2022-11-27T13:27:48.565Z,54.6
2022-11-27T13:28:50.063Z,54.1
2022-11-27T13:29:52.301Z,54.9
2022-11-27T13:30:54.184Z,55.2
2022-11-27T13:31:56.177Z,55.4
2022-11-27T13:32:58.004Z,55.4
2022-11-27T13:33:58.944Z,55.2
2022-11-27T13:35:00.011Z,55.2
2022-11-27T13:36:01.085Z,55.3
2022-11-27T13:37:03.097Z,55.6
2022-11-27T13:38:05.507Z,55.6
2022-11-27T13:39:07.427Z,55.7
2022-11-27T13:40:09.102Z,55.5
2022-11-27T13:41:11.114Z,55.3
2022-11-27T13:42:12.944Z,55.2
2022-11-27T13:43:14.069Z,55
2022-11-27T13:44:16.539Z,54.8
2022-11-27T13:45:18.213Z,54.3
2022-11-27T13:46:20.163Z,54
2022-11-27T13:47:22.059Z,53.8
2022-11-27T13:48:24.121Z,53.7
2022-11-27T13:49:25.996Z,53.8